Date,TemperatureHighF,TemperatureAvgF,TemperatureLowF,DewpointHighF,DewpointAvgF,DewpointLowF,HumidityHigh,HumidityAvg,HumidityLow,PressureMaxIn,PressureMinIn,WindSpeedMaxMPH,WindSpeedAvgMPH,GustSpeedMaxMPH,PrecipitationSumIn
2013-2-1,52.7,47.9,43.0,50.1,45.1,39.6,99,90,79,30.37,30.27,3,0,7,0.00
2013-2-2,60.1,47.0,38.1,50.6,42.3,36.0,94,84,66,30.30,30.22,5,1,16,0.00
2013-2-3,47.3,44.3,42.1,44.1,41.6,39.9,93,90,84,30.32,30.23,4,0,5,0.00
2013-2-4,53.8,48.9,42.6,49.1,43.4,40.9,95,82,69,30.16,29.91,5,0,9,0.00
2013-2-5,53.6,47.4,44.6,44.8,41.6,39.2,88,81,61,29.96,29.86,13,1,21,0.18
2013-2-6,48.7,47.3,43.2,42.1,40.8,39.0,85,78,72,30.05,29.77,5,1,14,0.08
2013-2-7,50.2,43.5,36.0,38.4,35.1,31.4,85,73,50,30.12,29.98,6,1,8,0.00
2013-2-8,46.6,40.6,30.2,38.5,32.9,27.9,94,75,57,30.30,30.24,8,2,11,0.01
2013-2-9,46.6,44.2,41.0,43.2,41.9,38.6,95,92,86,30.29,30.24,4,1,5,0.05
2013-2-10,45.1,42.9,39.2,43.4,39.3,36.1,97,87,71,30.36,30.30,4,1,7,28.95
2013-2-11,47.5,45.0,42.3,45.8,43.1,39.3,94,93,89,30.37,30.33,3,0,4,0.06
2013-2-12,50.0,47.7,44.6,48.3,46.4,43.5,97,95,92,30.45,30.39,9,2,17,0.02
2013-2-13,49.5,46.3,42.6,45.4,41.2,38.0,98,83,70,30.50,30.43,7,2,11,0.00
2013-2-14,47.5,44.9,39.6,45.6,43.2,37.3,94,94,92,30.56,30.51,2,0,4,0.05
2013-2-15,61.0,52.4,42.3,48.3,45.1,40.9,95,78,53,30.40,30.17,4,1,9,0.01
2013-2-16,50.0,46.7,42.8,44.6,41.7,37.0,96,83,69,30.26,30.22,16,6,24,0.03
2013-2-17,45.3,41.9,38.5,40.5,37.0,34.4,93,83,71,30.28,30.13,4,1,5,0.00
2013-2-18,48.6,43.5,37.8,40.1,37.1,34.9,92,78,66,29.99,29.74,5,1,13,0.05
2013-2-19,51.1,45.9,41.0,40.1,36.5,31.6,84,70,48,29.93,29.72,11,3,13,0.01
2013-2-20,46.0,42.1,37.4,41.1,37.9,34.7,92,85,75,30.07,29.97,4,1,8,0.15
2013-2-21,45.0,43.4,41.2,41.2,39.0,36.3,87,84,79,30.13,30.06,8,1,11,0.25
2013-2-22,49.1,43.8,36.7,44.2,38.6,32.3,91,82,71,30.00,29.81,22,6,35,0.78
2013-2-23,47.3,43.5,39.9,38.0,33.0,26.2,84,67,44,30.40,30.15,16,6,27,0.08
2013-2-24,50.0,46.5,39.6,39.1,36.3,33.0,87,68,57,30.37,30.09,4,1,9,0.00
2013-2-25,46.2,42.8,39.4,38.2,35.9,33.1,85,77,63,30.33,30.07,21,6,31,0.37
2013-2-26,50.0,43.8,35.2,39.4,35.8,31.7,91,74,53,30.36,30.21,5,1,11,0.04
2013-2-27,52.7,48.6,42.4,44.1,41.6,39.1,89,77,67,30.28,30.20,4,1,9,0.00
2013-2-28,53.8,50.3,46.6,52.9,48.9,43.8,97,95,90,30.35,30.17,8,2,11,0.38